Terminal Aerodrome Forecast
Issued by NWS Topeka, KS

Home | Current Version | Previous Version | Text Only | Print | Product List | Glossary On
Versions: 1 2 3 4 5 6 7 8 9 10 11 12 13 14
317
FTUS43 KTOP 031421 AAA
TAFTOP
TAF AMD
KTOP 031421Z 0314/0412 31016G26KT P6SM BKN022
     FM031700 31014KT P6SM SCT030
     FM040000 29006KT P6SM SKC=

USA.gov is the U.S. government's official web portal to all federal, state and local government web resources and services.